Larry Drummond — WDG3073 — position and weather

sailwx.info

Track history (hours):
 
Tides and Currents Weather Stations Pressure Air Temp Water Temp Dewpoint Dewpoint Depression Visibility Wind Speed Wind Dir Waves Ship Positions

Larry Drummond

Owner: INGRAM BARGE COMPANY, NASHVILLE, TN. More information available from US FCC via Universal Licensing System and Coast Guard Vessel Documentation Center.

Last reported at 2014-Mar-03 13:23 UTC. Time now 2014-Oct-22 13:54 UTC.
Position N 38°56' W 084°52'.
Warning: this ship's position is months out of date.

Length 70 m; draft 9 m.

Type: Towing. MMSI: 367522210.

Date/timePositionNaut miles runAvg speedWind from/ knotsBaromVisibWave heightAir tempDewpointWater temp
2014-Mar-03 13:23N 38°56' W 084°52'7 6.4
2014-Mar-03 12:18N 39°03' W 084°53'5 7.1
2014-Mar-03 11:31N 39°07' W 084°48'0 0.4
2014-Mar-03 10:33N 39°07' W 084°48'0 0.0
2014-Mar-03 09:32N 39°07' W 084°48'0 0.0
2014-Mar-03 08:32N 39°07' W 084°48'0 0.0
2014-Mar-03 07:29N 39°07' W 084°48'0 0.0
2014-Mar-03 06:27N 39°07' W 084°48'0 0.1
2014-Mar-03 05:33N 39°07' W 084°48'0 0.0
2014-Mar-03 04:31N 39°07' W 084°48'0 0.1
2014-Mar-03 03:32N 39°07' W 084°48'0 0.0
2014-Mar-03 02:29N 39°07' W 084°48'0 0.2
2014-Mar-03 01:32N 39°07' W 084°48'0 0.0
2014-Mar-03 00:33N 39°07' W 084°48'0 0.0
2014-Mar-02 23:28N 39°07' W 084°48'2 2.3
2014-Mar-02 22:33N 39°08' W 084°46'7 6.6
2014-Mar-02 21:34N 39°05' W 084°39'7 6.7
2014-Mar-02 20:33N 39°06' W 084°30'5 4.8
2014-Mar-02 19:33N 39°03' W 084°25'7 6.9
2014-Mar-02 18:33N 38°59' W 084°18'8 7.5
2014-Mar-02 17:32N 38°52' W 084°14'  
2014-Feb-27 07:33N 38°47' W 084°07'3 2.2
2014-Feb-27 06:04N 38°48' W 084°10'1 2.3
2014-Feb-27 05:33N 38°48' W 084°12'4 3.7
2014-Feb-27 04:31N 38°51' W 084°14'4 4.3
2014-Feb-27 03:33N 38°55' W 084°16'4 4.0
2014-Feb-27 02:33N 38°59' W 084°18'0 0.0
2014-Feb-27 01:33N 38°59' W 084°18'1 0.7
2014-Feb-27 00:33N 38°60' W 084°18'4 4.2
2014-Feb-26 23:32N 39°02' W 084°22'4 3.6
2014-Feb-26 22:33N 39°05' W 084°26'3 3.1
2014-Feb-26 21:33N 39°07' W 084°28'3 2.7
2014-Feb-26 20:30N 39°05' W 084°31'2 2.0
2014-Feb-26 19:32N 39°06' W 084°33'2 1.6
2014-Feb-26 18:30N 39°05' W 084°35'0 0.0
2014-Feb-26 17:33N 39°05' W 084°35'2 2.3
2014-Feb-26 16:33N 39°05' W 084°38'3 2.4
2014-Feb-26 15:25N 39°06' W 084°41'0 0.3
2014-Feb-26 14:30N 39°06' W 084°42'4 3.8
2014-Feb-26 13:33N 39°09' W 084°45'  
Track history (hours):
 
Tides and Currents Weather Stations Pressure Air Temp Water Temp Dewpoint Dewpoint Depression Visibility Wind Speed Wind Dir Waves Ship Positions

Larry Drummond

Owner: INGRAM BARGE COMPANY, NASHVILLE, TN. More information available from US FCC via Universal Licensing System and Coast Guard Vessel Documentation Center.

Last reported at 2014-Mar-03 13:23 UTC. Time now 2014-Oct-22 13:54 UTC.
Position N 38°56' W 084°52'.
Warning: this ship's position is months out of date.

Length 70 m; draft 9 m.

Type: Towing. MMSI: 367522210.

Date/timePositionNaut miles runAvg speedWind from/ knotsBaromVisibWave heightAir tempDewpointWater temp
2014-Mar-03 13:23N 38°56' W 084°52'7 6.4
2014-Mar-03 12:18N 39°03' W 084°53'5 7.1
2014-Mar-03 11:31N 39°07' W 084°48'0 0.4
2014-Mar-03 10:33N 39°07' W 084°48'0 0.0
2014-Mar-03 09:32N 39°07' W 084°48'0 0.0
2014-Mar-03 08:32N 39°07' W 084°48'0 0.0
2014-Mar-03 07:29N 39°07' W 084°48'0 0.0
2014-Mar-03 06:27N 39°07' W 084°48'0 0.1
2014-Mar-03 05:33N 39°07' W 084°48'0 0.0
2014-Mar-03 04:31N 39°07' W 084°48'0 0.1
2014-Mar-03 03:32N 39°07' W 084°48'0 0.0
2014-Mar-03 02:29N 39°07' W 084°48'0 0.2
2014-Mar-03 01:32N 39°07' W 084°48'0 0.0
2014-Mar-03 00:33N 39°07' W 084°48'0 0.0
2014-Mar-02 23:28N 39°07' W 084°48'2 2.3
2014-Mar-02 22:33N 39°08' W 084°46'7 6.6
2014-Mar-02 21:34N 39°05' W 084°39'7 6.7
2014-Mar-02 20:33N 39°06' W 084°30'5 4.8
2014-Mar-02 19:33N 39°03' W 084°25'7 6.9
2014-Mar-02 18:33N 38°59' W 084°18'8 7.5
2014-Mar-02 17:32N 38°52' W 084°14'  
2014-Feb-27 07:33N 38°47' W 084°07'3 2.2
2014-Feb-27 06:04N 38°48' W 084°10'1 2.3
2014-Feb-27 05:33N 38°48' W 084°12'4 3.7
2014-Feb-27 04:31N 38°51' W 084°14'4 4.3
2014-Feb-27 03:33N 38°55' W 084°16'4 4.0
2014-Feb-27 02:33N 38°59' W 084°18'0 0.0
2014-Feb-27 01:33N 38°59' W 084°18'1 0.7
2014-Feb-27 00:33N 38°60' W 084°18'4 4.2
2014-Feb-26 23:32N 39°02' W 084°22'4 3.6
2014-Feb-26 22:33N 39°05' W 084°26'3 3.1
2014-Feb-26 21:33N 39°07' W 084°28'3 2.7
2014-Feb-26 20:30N 39°05' W 084°31'2 2.0
2014-Feb-26 19:32N 39°06' W 084°33'2 1.6
2014-Feb-26 18:30N 39°05' W 084°35'0 0.0
2014-Feb-26 17:33N 39°05' W 084°35'2 2.3
2014-Feb-26 16:33N 39°05' W 084°38'3 2.4
2014-Feb-26 15:25N 39°06' W 084°41'0 0.3
2014-Feb-26 14:30N 39°06' W 084°42'4 3.8
2014-Feb-26 13:33N 39°09' W 084°45'  

Dump ship's entire track history